Time;durP1;ratioP1;P1;durP2;ratioP2;P2;SDS_P1;SDS_P2;PMS_P1;PMS_P2;Temp;Humidity;BMP_temperature;BMP_pressure;BME280_temperature;BME280_humidity;BME280_pressure;Samples;Min_cycle;Max_cycle;Signal;HPM_P1;HPM_P2
2022/01/21 00:01:21;;;;;;;4.87;3.08;;;;;;;6.07;51.68;98481.32;1716324;80;21470;-56
2022/01/21 00:03:47;;;;;;;;;;;;;;;6.15;52.95;98470.08;1737199;80;21493;-57
2022/01/21 00:06:14;;;;;;;3.92;2.72;;;;;;;6.13;52.81;98478.91;1721914;80;22893;-56
2022/01/21 00:08:45;;;;;;;5.57;2.80;;;;;;;6.17;51.88;98482.60;1718435;81;21426;-56
2022/01/21 00:11:13;;;;;;;2.72;2.25;;;;;;;6.22;51.78;98484.56;1724628;82;21504;-56
2022/01/21 00:13:40;;;;;;;5.10;2.42;;;;;;;6.28;52.54;98488.67;1716005;82;21494;-57
2022/01/21 00:16:14;;;;;;;8.13;2.80;;;;;;;6.20;51.92;98481.18;1716091;80;21435;-56
2022/01/21 00:18:54;;;;;;;5.25;2.45;;;;;;;6.10;52.03;98481.63;1719556;80;22609;-57
2022/01/21 00:32:10;;;;;;;5.78;2.52;;;;;;;6.17;51.61;98473.94;1707525;82;22795;-54
2022/01/21 00:34:37;;;;;;;5.65;2.60;;;;;;;6.14;51.27;98473.62;1712622;81;21463;-54
2022/01/21 00:37:04;;;;;;;5.60;2.95;;;;;;;6.09;50.82;98472.97;1702567;82;21507;-54
2022/01/21 00:39:34;;;;;;;4.90;2.83;;;;;;;6.14;51.10;98469.70;1712296;82;21514;-54
2022/01/21 00:42:11;;;;;;;6.35;2.70;;;;;;;6.29;51.40;98460.80;1709205;81;21525;-54
2022/01/21 00:44:32;;;;;;;4.30;2.37;;;;;;;6.22;51.17;98464.15;1705688;82;22408;-56
2022/01/21 00:46:59;;;;;;;3.40;2.62;;;;;;;6.34;50.78;98458.38;1703260;83;27793;-55
2022/01/21 00:49:26;;;;;;;4.55;1.85;;;;;;;6.30;50.46;98464.65;1695440;83;21356;-55
2022/01/21 00:51:52;;;;;;;4.78;2.45;;;;;;;6.15;50.70;98466.16;1706894;83;21349;-56
2022/01/21 00:54:21;;;;;;;9.28;2.65;;;;;;;6.32;50.42;98469.81;1711406;83;21507;-56
2022/01/21 00:56:49;;;;;;;4.62;2.25;;;;;;;6.23;50.39;98465.83;1705501;81;22457;-56
2022/01/21 00:59:15;;;;;;;7.22;2.00;;;;;;;6.01;49.51;98471.16;1709806;83;21344;-57
2022/01/21 01:01:42;;;;;;;6.35;2.92;;;;;;;6.12;49.51;98466.32;1701680;83;21375;-56
2022/01/21 01:04:09;;;;;;;4.78;2.50;;;;;;;6.10;49.77;98468.12;1708661;83;21436;-56
2022/01/21 01:06:36;;;;;;;7.08;2.20;;;;;;;5.99;49.41;98477.73;1703764;83;21463;-56
2022/01/21 01:09:03;;;;;;;6.12;2.20;;;;;;;5.88;49.35;98481.22;1702138;83;22513;-55
2022/01/21 01:11:45;;;;;;;5.70;2.37;;;;;;;6.14;49.92;98477.54;1698274;83;21515;-56
2022/01/21 01:22:15;;;;;;;3.67;2.25;;;;;;;6.28;49.42;98470.87;1709291;82;22841;-55
2022/01/21 01:27:41;;;;;;;3.42;1.90;;;;;;;6.10;49.33;98477.72;1706231;80;21410;-54
2022/01/21 01:30:15;;;;;;;5.70;2.27;;;;;;;6.20;48.71;98476.42;1712032;81;21340;-55
2022/01/21 01:32:43;;;;;;;4.42;2.40;;;;;;;6.12;48.46;98486.33;1709274;80;20962;-55
2022/01/21 01:35:11;;;;;;;5.35;2.30;;;;;;;6.09;48.34;98485.17;1698102;82;22398;-55
2022/01/21 01:38:05;;;;;;;4.35;2.15;;;;;;;5.98;47.55;98474.72;1719574;80;20961;-57
2022/01/21 01:40:26;;;;;;;5.40;2.40;;;;;;;5.87;48.78;98472.16;1713984;82;21563;-56
2022/01/21 01:50:38;;;;;;;5.55;2.80;;;;;;;5.95;49.33;98447.48;1711966;80;21521;-55
2022/01/21 01:53:05;;;;;;;8.23;2.33;;;;;;;6.01;48.82;98450.28;1718068;80;21427;-55
2022/01/21 01:55:32;;;;;;;4.55;2.00;;;;;;;5.99;48.55;98448.16;1711985;80;21566;-54
2022/01/21 01:57:59;;;;;;;4.90;2.72;;;;;;;5.91;48.54;98447.16;1706172;82;20891;-54
2022/01/21 02:00:26;;;;;;;5.53;2.40;;;;;;;5.94;48.58;98438.37;1715098;80;22482;-56
2022/01/21 02:02:53;;;;;;;4.22;2.10;;;;;;;5.86;48.11;98449.14;1711754;82;21395;-55
2022/01/21 02:05:19;;;;;;;2.83;2.33;;;;;;;6.01;47.63;98456.34;1650399;86;21084;-55
2022/01/21 02:07:47;;;;;;;5.67;2.10;;;;;;;9.91;42.35;98433.91;1698432;83;21021;-54
2022/01/21 02:10:14;;;;;;;7.95;2.52;;;;;;;10.32;40.16;98434.07;1704716;83;21519;-55
2022/01/21 02:12:41;;;;;;;5.62;1.98;;;;;;;6.14;46.39;98455.35;1695317;83;22853;-55
2022/01/21 02:15:09;;;;;;;2.67;2.02;;;;;;;5.89;47.17;98449.45;1689186;83;21776;-55
2022/01/21 02:22:53;;;;;;;3.52;2.08;;;;;;;5.56;48.07;98447.37;1709894;82;21420;-55
2022/01/21 02:25:19;;;;;;;4.20;2.10;;;;;;;5.33;47.22;98449.16;1719083;80;22540;-56
2022/01/21 02:27:55;;;;;;;4.33;1.95;;;;;;;5.29;47.17;98441.50;1703373;82;21467;-55
2022/01/21 02:30:23;;;;;;;3.70;2.15;;;;;;;5.27;48.31;98440.26;1719771;81;20915;-56
2022/01/21 02:32:55;;;;;;;4.15;2.15;;;;;;;5.24;48.11;98443.01;1706085;81;21491;-56
2022/01/21 02:35:22;;;;;;;7.17;3.12;;;;;;;5.28;48.21;98441.13;1714568;80;20871;-56
2022/01/21 02:37:50;;;;;;;5.60;2.58;;;;;;;5.23;47.83;98436.92;1699111;80;22459;-56
2022/01/21 02:40:17;;;;;;;4.45;2.47;;;;;;;5.35;47.93;98437.34;1696892;82;21487;-55
2022/01/21 02:42:44;;;;;;;4.85;2.40;;;;;;;5.40;47.63;98437.55;1704638;82;21512;-55
2022/01/21 02:45:14;;;;;;;3.95;1.95;;;;;;;5.71;48.14;98442.81;1708606;80;21064;-55
2022/01/21 02:47:43;;;;;;;7.25;2.33;;;;;;;5.77;48.15;98441.23;1708720;80;21491;-55
2022/01/21 02:50:10;;;;;;;4.72;2.30;;;;;;;5.74;48.52;98433.53;1689205;83;22526;-55
2022/01/21 02:52:42;;;;;;;3.25;1.65;;;;;;;5.78;48.70;98424.69;1707663;80;21534;-55
2022/01/21 02:55:08;;;;;;;3.33;2.10;;;;;;;5.49;47.66;98419.84;1710762;82;21534;-55
2022/01/21 02:57:35;;;;;;;2.85;1.60;;;;;;;5.69;48.15;98412.47;1714287;82;21405;-56
2022/01/21 03:00:02;;;;;;;6.05;2.15;;;;;;;5.60;48.22;98419.78;1712046;80;21534;-56
2022/01/21 03:02:28;;;;;;;4.85;1.70;;;;;;;5.48;48.18;98418.98;1705224;82;22429;-55
2022/01/21 03:05:03;;;;;;;5.10;2.30;;;;;;;5.47;48.40;98408.17;1709409;82;21011;-55
2022/01/21 03:07:23;;;;;;;5.83;2.33;;;;;;;5.29;48.40;98406.32;1707273;82;20982;-55
2022/01/21 03:09:50;;;;;;;8.13;2.27;;;;;;;5.14;47.82;98406.48;1707629;82;21472;-55
2022/01/21 03:12:21;;;;;;;8.03;2.12;;;;;;;5.13;48.43;98403.05;1717843;80;21474;-55
2022/01/21 03:14:48;;;;;;;5.47;2.42;;;;;;;4.81;48.56;98412.14;1713837;80;22442;-55
2022/01/21 03:17:15;;;;;;;;;;;;;;;4.68;48.51;98402.65;1704437;82;21503;-55
2022/01/21 03:19:42;;;;;;;3.58;1.75;;;;;;;4.83;48.88;98392.92;1712391;80;20430;-56
2022/01/21 03:22:09;;;;;;;4.87;2.30;;;;;;;4.91;49.10;98383.97;1712657;80;21487;-55
2022/01/21 03:24:36;;;;;;;5.25;1.98;;;;;;;4.97;49.25;98378.08;1732646;81;21506;-55
2022/01/21 03:27:03;;;;;;;3.83;2.02;;;;;;;4.86;49.18;98381.56;1721724;80;22476;-55
2022/01/21 03:29:31;;;;;;;4.15;2.17;;;;;;;4.85;49.15;98380.69;1729044;81;21470;-55
2022/01/21 03:31:58;;;;;;;4.35;2.02;;;;;;;4.90;49.59;98376.63;1732926;81;21530;-55
2022/01/21 03:34:24;;;;;;;6.78;2.37;;;;;;;4.92;48.71;98374.80;1727951;80;21431;-55
2022/01/21 03:36:53;;;;;;;4.73;1.73;;;;;;;5.10;49.05;98372.35;1729107;80;21554;-56
2022/01/21 03:39:20;;;;;;;3.92;1.95;;;;;;;5.09;49.39;98380.63;1724674;81;22486;-55
2022/01/21 03:41:47;;;;;;;10.10;1.98;;;;;;;5.26;48.74;98382.55;1733689;80;21551;-54
2022/01/21 03:44:14;;;;;;;5.42;1.85;;;;;;;5.32;49.21;98378.84;1736949;81;21470;-55
2022/01/21 03:46:41;;;;;;;3.40;1.87;;;;;;;5.24;49.34;98369.57;1717606;81;21219;-54
2022/01/21 03:49:09;;;;;;;4.50;2.23;;;;;;;5.20;50.23;98367.17;1734877;80;21402;-55
2022/01/21 03:51:36;;;;;;;4.58;2.10;;;;;;;5.05;49.20;98364.27;1726069;81;22881;-55
2022/01/21 03:54:03;;;;;;;4.50;2.27;;;;;;;4.93;49.48;98367.83;1735989;80;21488;-55
2022/01/21 03:56:30;;;;;;;4.95;2.05;;;;;;;4.93;49.56;98373.88;1732217;81;21435;-55
2022/01/21 03:58:57;;;;;;;3.10;2.00;;;;;;;4.92;50.00;98368.28;1727030;81;21428;-55
2022/01/21 04:01:25;;;;;;;3.58;2.58;;;;;;;4.90;49.81;98362.30;1731491;80;21823;-56
2022/01/21 04:03:52;;;;;;;6.10;2.60;;;;;;;4.80;50.33;98371.36;1736286;80;21870;-55
2022/01/21 04:06:18;;;;;;;9.20;2.77;;;;;;;4.68;50.19;98368.34;1734453;81;21549;-56
2022/01/21 04:08:45;;;;;;;5.95;2.52;;;;;;;4.60;50.88;98370.86;1730238;80;21604;-55
2022/01/21 04:11:12;;;;;;;8.28;2.65;;;;;;;4.65;50.77;98363.27;1729807;80;21478;-56
2022/01/21 04:13:40;;;;;;;3.62;2.27;;;;;;;4.63;50.97;98355.10;1733994;81;20922;-55
2022/01/21 04:16:09;;;;;;;8.10;2.60;;;;;;;4.83;50.62;98356.93;1734122;80;22394;-55
2022/01/21 04:18:36;;;;;;;5.00;2.53;;;;;;;4.69;52.41;98356.19;1726548;80;21423;-55
2022/01/21 04:21:06;;;;;;;5.72;2.40;;;;;;;4.67;52.01;98355.37;1722445;80;21500;-55
2022/01/21 04:23:34;;;;;;;3.98;2.40;;;;;;;4.63;51.80;98356.41;1740523;80;21408;-55
2022/01/21 04:26:01;;;;;;;4.62;2.50;;;;;;;4.61;51.59;98358.22;1727307;81;27648;-55
2022/01/21 04:28:29;;;;;;;6.95;3.10;;;;;;;4.59;51.24;98358.73;1722231;80;22373;-55
2022/01/21 04:30:58;;;;;;;5.62;2.45;;;;;;;4.68;51.20;98351.41;1719645;80;22542;-54
2022/01/21 04:33:33;;;;;;;6.15;3.10;;;;;;;4.58;50.98;98362.27;1727331;81;21403;-56
2022/01/21 04:36:01;;;;;;;6.60;3.20;;;;;;;4.85;51.61;98357.72;1732067;81;21386;-56
2022/01/21 04:38:29;;;;;;;5.12;2.65;;;;;;;4.72;51.17;98358.66;1731450;81;21403;-57
2022/01/21 04:41:07;;;;;;;6.72;3.17;;;;;;;4.38;52.70;98361.26;1729361;80;22463;-56
2022/01/21 04:48:56;;;;;;;4.97;2.65;;;;;;;4.55;53.39;98364.52;1700207;83;21519;-56
2022/01/21 04:51:28;;;;;;;4.67;2.90;;;;;;;11.85;45.11;98344.01;1707512;83;21478;-54
2022/01/21 04:53:55;;;;;;;5.37;2.45;;;;;;;12.74;41.59;98340.39;1715409;83;22543;-55
2022/01/21 04:56:24;;;;;;;5.22;2.62;;;;;;;12.87;41.23;98346.11;1703651;83;21475;-55
2022/01/21 04:58:53;;;;;;;7.85;2.98;;;;;;;12.38;40.04;98342.08;1713310;82;21011;-56
2022/01/21 05:01:20;;;;;;;7.53;3.27;;;;;;;14.00;41.15;98340.72;1707740;83;21521;-55
2022/01/21 05:03:47;;;;;;;5.58;3.25;;;;;;;13.22;37.44;98327.20;1666123;83;21477;-55
2022/01/21 05:06:13;;;;;;;6.70;3.10;;;;;;;13.18;37.23;98330.99;1669730;83;22543;-55
2022/01/21 05:08:54;;;;;;;4.35;2.62;;;;;;;13.28;37.19;98340.41;1675923;83;21517;-56
2022/01/21 05:11:22;;;;;;;5.17;2.95;;;;;;;13.07;37.80;98332.27;1666914;84;21446;-55
2022/01/21 05:13:56;;;;;;;5.72;3.15;;;;;;;13.25;37.34;98337.50;1693810;82;21395;-55
2022/01/21 05:16:39;;;;;;;7.17;2.50;;;;;;;13.07;37.11;98327.48;1735135;81;21458;-55
2022/01/21 05:19:06;;;;;;;5.35;2.35;;;;;;;12.52;38.58;98338.45;1725261;80;22434;-55
2022/01/21 05:21:46;;;;;;;5.95;2.67;;;;;;;13.17;38.19;98333.77;1729649;80;21408;-55
2022/01/21 05:24:16;;;;;;;6.78;3.15;;;;;;;12.91;38.19;98330.41;1722050;80;21433;-56
2022/01/21 05:26:52;;;;;;;4.58;2.40;;;;;;;12.72;38.45;98329.11;1707119;82;20950;-55
2022/01/21 05:29:12;;;;;;;5.05;2.65;;;;;;;13.03;37.70;98335.64;1701750;82;21419;-55
2022/01/21 05:31:47;;;;;;;11.75;2.87;;;;;;;12.90;38.22;98331.36;1718471;80;22448;-54
2022/01/21 05:34:22;;;;;;;4.58;2.50;;;;;;;12.91;38.37;98309.31;1661735;82;20996;-55
2022/01/21 05:37:07;;;;;;;11.25;3.02;;;;;;;12.46;38.00;98333.13;1698364;80;21423;-54
2022/01/21 05:39:36;;;;;;;5.50;2.25;;;;;;;12.74;40.13;98328.52;1709814;80;21447;-54
2022/01/21 05:42:16;;;;;;;6.37;2.45;;;;;;;12.86;38.88;98334.69;1700265;80;21416;-54
2022/01/21 05:47:19;;;;;;;5.45;2.20;;;;;;;13.00;39.05;98344.25;1712809;82;20931;-54
2022/01/21 05:49:48;;;;;;;6.80;3.35;;;;;;;12.56;39.76;98343.86;1707525;82;21490;-57
2022/01/21 05:52:27;;;;;;;5.83;2.90;;;;;;;12.75;44.09;98343.86;1709101;80;21482;-56
2022/01/21 05:55:03;;;;;;;5.33;2.60;;;;;;;12.92;45.22;98346.59;1681036;80;21466;-58
2022/01/21 05:57:38;;;;;;;7.28;3.12;;;;;;;12.88;44.75;98360.97;1700095;82;22856;-55
2022/01/21 06:00:06;;;;;;;5.45;2.77;;;;;;;15.09;40.63;98361.17;1707694;80;21519;-55
2022/01/21 06:02:34;;;;;;;4.92;2.65;;;;;;;13.99;42.04;98355.74;1688336;83;21528;-54
2022/01/21 06:05:00;;;;;;;7.12;2.98;;;;;;;13.96;44.59;98360.42;1703549;83;21503;-55
2022/01/21 06:07:27;;;;;;;6.33;2.67;;;;;;;13.65;40.22;98365.38;1713351;82;21482;-54
2022/01/21 06:09:54;;;;;;;4.28;2.72;;;;;;;13.38;39.10;98348.03;1695984;83;21520;-55
2022/01/21 06:12:21;;;;;;;7.70;3.22;;;;;;;14.08;38.02;98358.62;1711386;82;21875;-55
2022/01/21 06:14:47;;;;;;;5.28;2.58;;;;;;;13.47;39.43;98358.39;1707281;81;21463;-56
2022/01/21 06:17:14;;;;;;;6.40;2.67;;;;;;;13.46;39.26;98354.54;1705372;82;21435;-56
2022/01/21 06:19:41;;;;;;;4.80;2.62;;;;;;;13.46;39.45;98360.65;1703362;82;21424;-55
2022/01/21 06:22:08;;;;;;;4.78;2.35;;;;;;;13.73;40.10;98360.38;1707800;81;22505;-55
2022/01/21 06:24:34;;;;;;;3.08;2.15;;;;;;;13.95;38.79;98366.65;1700140;83;21572;-55
2022/01/21 06:27:03;;;;;;;5.30;2.65;;;;;;;13.85;38.69;98360.41;1700031;83;21494;-55
2022/01/21 06:29:29;;;;;;;7.70;2.67;;;;;;;13.32;39.36;98360.86;1710772;83;21400;-55
2022/01/21 06:31:56;;;;;;;5.50;2.70;;;;;;;13.52;39.40;98354.06;1714512;83;21437;-56
2022/01/21 06:34:23;;;;;;;3.85;2.22;;;;;;;14.04;40.13;98351.41;1704595;82;22391;-55
2022/01/21 06:36:50;;;;;;;6.03;2.60;;;;;;;13.67;39.92;98358.67;1711254;83;21483;-55
2022/01/21 06:39:16;;;;;;;5.17;2.30;;;;;;;13.78;39.46;98360.84;1703446;83;21463;-54
2022/01/21 06:41:46;;;;;;;7.70;3.10;;;;;;;13.40;38.52;98358.48;1707072;83;21387;-54
2022/01/21 06:44:11;;;;;;;5.35;2.05;;;;;;;13.46;38.88;98350.58;1723054;82;21537;-55
2022/01/21 06:46:39;;;;;;;3.85;2.35;;;;;;;13.69;38.11;98357.59;1721443;82;22536;-56
2022/01/21 06:49:05;;;;;;;6.17;2.23;;;;;;;13.17;38.17;98358.36;1685627;83;21408;-56
2022/01/21 06:51:32;;;;;;;6.15;2.85;;;;;;;12.86;37.75;98358.43;1716466;82;21415;-56
2022/01/21 06:53:59;;;;;;;3.40;2.00;;;;;;;12.88;37.99;98365.75;1685833;83;21570;-57
2022/01/21 06:56:25;;;;;;;5.45;2.67;;;;;;;12.68;38.11;98361.07;1671089;84;21528;-56
2022/01/21 06:58:52;;;;;;;3.67;2.52;;;;;;;12.91;38.23;98360.27;1739286;80;22365;-56
2022/01/21 07:01:19;;;;;;;4.87;2.72;;;;;;;12.80;38.57;98370.75;1731747;80;20931;-56
2022/01/21 07:03:46;;;;;;;5.33;2.77;;;;;;;13.04;37.61;98360.22;1732492;80;21002;-55
2022/01/21 07:06:12;;;;;;;3.15;2.27;;;;;;;13.15;37.88;98358.95;1733178;80;21568;-56
2022/01/21 07:08:39;;;;;;;3.20;2.60;;;;;;;13.20;37.58;98358.14;1733288;80;21621;-55
2022/01/21 07:11:06;;;;;;;4.47;2.47;;;;;;;12.56;38.02;98354.41;1729535;80;22484;-55
2022/01/21 07:13:34;;;;;;;6.17;2.90;;;;;;;13.00;39.36;98354.32;1739995;80;21525;-57
2022/01/21 07:16:00;;;;;;;4.15;2.42;;;;;;;12.90;37.69;98359.05;1736266;80;20984;-56
2022/01/21 07:18:27;;;;;;;3.17;2.33;;;;;;;12.60;38.09;98357.67;1743820;80;21860;-56
2022/01/21 07:20:54;;;;;;;5.35;2.62;;;;;;;12.60;38.28;98353.71;1745662;80;21605;-55
2022/01/21 07:23:20;;;;;;;6.05;2.62;;;;;;;13.49;39.21;98356.95;1746080;80;22415;-57
2022/01/21 07:25:47;;;;;;;6.33;2.67;;;;;;;12.58;38.55;98355.17;1724853;80;21665;-57
2022/01/21 07:28:13;;;;;;;5.37;3.00;;;;;;;13.11;38.10;98368.05;1723419;81;21451;-56
2022/01/21 07:30:41;;;;;;;4.72;2.25;;;;;;;12.13;38.55;98370.64;1718536;82;21544;-55
2022/01/21 07:33:08;;;;;;;4.03;2.33;;;;;;;12.73;38.28;98363.74;1717123;82;21396;-56
2022/01/21 07:35:35;;;;;;;3.62;2.75;;;;;;;12.58;38.29;98355.17;1707288;80;22485;-55
2022/01/21 07:38:02;;;;;;;4.55;2.87;;;;;;;13.10;37.89;98358.92;1706522;80;21463;-55
2022/01/21 07:40:28;;;;;;;6.45;2.55;;;;;;;13.35;37.83;98358.80;1699317;82;21064;-56
2022/01/21 07:42:55;;;;;;;4.70;2.58;;;;;;;13.33;37.83;98363.84;1720954;80;21337;-56
2022/01/21 07:45:22;;;;;;;8.60;3.65;;;;;;;13.32;37.43;98364.82;1710160;82;21522;-56
2022/01/21 07:47:49;;;;;;;6.12;3.45;;;;;;;13.15;38.17;98365.55;1712924;80;22483;-56
2022/01/21 07:50:16;;;;;;;6.58;3.45;;;;;;;12.73;37.99;98362.42;1714341;82;21532;-55
2022/01/21 07:52:42;;;;;;;3.02;2.08;;;;;;;12.46;38.42;98365.25;1709380;80;21432;-57
2022/01/21 07:55:10;;;;;;;6.50;2.33;;;;;;;12.77;38.49;98353.36;1721159;80;21022;-56
2022/01/21 07:57:37;;;;;;;5.50;2.77;;;;;;;12.69;38.02;98366.24;1709616;80;21510;-56
2022/01/21 08:00:06;;;;;;;9.53;2.52;;;;;;;12.57;38.51;98361.38;1704161;81;21522;-56
2022/01/21 08:02:35;;;;;;;4.85;2.75;;;;;;;12.61;38.38;98363.33;1702526;81;20954;-56
2022/01/21 08:05:03;;;;;;;5.53;2.95;;;;;;;12.95;38.10;98355.61;1707393;80;21490;-56
2022/01/21 08:07:30;;;;;;;4.55;2.35;;;;;;;12.62;37.86;98372.91;1705884;80;21495;-54
2022/01/21 08:09:58;;;;;;;4.00;2.47;;;;;;;12.85;38.20;98362.04;1707753;82;21502;-56
2022/01/21 08:12:24;;;;;;;4.12;2.20;;;;;;;12.91;38.32;98356.80;1712004;82;22428;-57
2022/01/21 08:14:51;;;;;;;2.83;2.10;;;;;;;13.13;37.89;98348.99;1714113;80;21479;-56
2022/01/21 08:17:18;;;;;;;2.70;2.12;;;;;;;12.97;38.27;98350.58;1712749;80;21507;-56
2022/01/21 08:19:45;;;;;;;3.67;2.27;;;;;;;13.00;37.59;98350.36;1711521;80;21484;-55
2022/01/21 08:22:11;;;;;;;7.78;2.22;;;;;;;12.91;38.46;98356.31;1697699;81;21430;-55
2022/01/21 08:24:38;;;;;;;7.87;2.45;;;;;;;12.80;38.65;98362.36;1717964;81;22727;-60
2022/01/21 08:27:05;;;;;;;4.95;2.20;;;;;;;12.77;42.16;98358.64;1698820;82;21494;-56
2022/01/21 08:29:32;;;;;;;4.78;2.72;;;;;;;12.92;39.30;98357.14;1706966;80;21411;-56
2022/01/21 08:31:58;;;;;;;8.40;3.22;;;;;;;13.02;39.05;98362.13;1713625;80;21242;-56
2022/01/21 08:34:25;;;;;;;3.55;2.60;;;;;;;12.72;38.66;98358.61;1714792;81;21508;-57
2022/01/21 08:36:54;;;;;;;4.65;2.50;;;;;;;12.77;39.47;98356.00;1718201;82;22514;-55
2022/01/21 08:39:20;;;;;;;3.75;2.60;;;;;;;12.52;38.71;98354.75;1712414;80;21556;-55
2022/01/21 08:41:46;;;;;;;6.97;2.72;;;;;;;12.67;38.97;98366.83;1710050;80;20932;-56
2022/01/21 08:44:13;;;;;;;6.33;3.00;;;;;;;12.92;39.16;98348.77;1713658;82;21499;-55
2022/01/21 08:46:40;;;;;;;4.72;3.00;;;;;;;12.79;39.07;98357.19;1708340;81;21128;-56
2022/01/21 08:49:08;;;;;;;7.72;3.20;;;;;;;12.69;39.65;98346.47;1711538;80;22866;-55
2022/01/21 08:51:47;;;;;;;5.12;3.37;;;;;;;12.84;42.00;98340.08;1712855;82;21554;-56
2022/01/21 08:54:04;;;;;;;9.93;3.55;;;;;;;13.01;43.63;98352.03;1705927;81;21516;-55
2022/01/21 08:56:31;;;;;;;4.90;2.98;;;;;;;12.31;40.59;98353.16;1704807;82;21017;-56
2022/01/21 08:58:57;;;;;;;5.58;3.30;;;;;;;12.88;40.70;98355.69;1709016;81;21426;-56
2022/01/21 09:01:24;;;;;;;5.83;3.05;;;;;;;13.27;41.14;98348.44;1714436;80;22498;-55
2022/01/21 09:03:51;;;;;;;5.00;2.77;;;;;;;13.42;45.36;98352.60;1717428;81;21624;-56
2022/01/21 09:06:19;;;;;;;8.18;3.33;;;;;;;12.85;51.05;98344.41;1709365;81;21450;-56
2022/01/21 09:08:46;;;;;;;10.65;3.25;;;;;;;12.25;43.47;98353.95;1712362;80;21452;-56
2022/01/21 09:11:13;;;;;;;8.33;3.47;;;;;;;12.22;48.00;98348.92;1718780;82;21463;-57
2022/01/21 09:13:41;;;;;;;8.45;3.15;;;;;;;11.90;44.42;98356.39;1715006;80;22386;-57
2022/01/21 09:16:10;;;;;;;6.35;3.58;;;;;;;12.56;47.12;98345.66;1705847;80;21641;-58
2022/01/21 09:18:51;;;;;;;7.50;2.98;;;;;;;12.94;75.90;98347.31;1715331;80;21517;-56
2022/01/21 09:21:20;;;;;;;6.90;2.72;;;;;;;12.79;42.38;98340.04;1711124;80;21530;-55
2022/01/21 09:23:49;;;;;;;8.38;3.60;;;;;;;16.83;48.91;98340.27;1715036;80;21571;-56
2022/01/21 09:26:17;;;;;;;6.90;2.87;;;;;;;16.83;45.94;98334.46;1714844;80;22806;-59
2022/01/21 09:28:44;;;;;;;5.22;2.67;;;;;;;16.13;42.92;98322.92;1702924;82;21840;-56
2022/01/21 09:31:11;;;;;;;6.93;3.20;;;;;;;15.79;42.21;98324.50;1641718;86;21531;-56
2022/01/21 09:33:38;;;;;;;6.45;2.83;;;;;;;15.79;42.21;98324.50;1704832;82;22264;-55
2022/01/21 09:36:05;;;;;;;6.95;3.12;;;;;;;15.42;44.69;98328.88;1707678;80;21002;-56
2022/01/21 09:38:32;;;;;;;6.30;3.65;;;;;;;15.73;42.14;98337.78;1714797;82;22464;-56
2022/01/21 09:40:58;;;;;;;5.92;3.12;;;;;;;15.02;40.49;98326.90;1713559;81;21529;-56
2022/01/21 09:43:25;;;;;;;10.03;3.50;;;;;;;15.12;40.49;98338.39;1711767;81;21594;-58
2022/01/21 09:45:54;;;;;;;5.12;2.90;;;;;;;14.50;44.03;98325.79;1698357;81;21495;-56
2022/01/21 09:48:29;;;;;;;5.50;3.55;;;;;;;14.15;40.66;98325.47;1708174;80;20966;-56
2022/01/21 09:50:58;;;;;;;10.82;3.98;;;;;;;15.22;41.35;98317.33;1718148;80;22742;-56
2022/01/21 09:53:30;;;;;;;6.25;3.50;;;;;;;15.37;42.03;98320.02;1705489;82;21511;-56
2022/01/21 09:56:01;;;;;;;5.55;3.40;;;;;;;14.71;47.31;98318.82;1708810;82;21569;-56
2022/01/21 09:58:29;;;;;;;5.58;3.67;;;;;;;14.44;50.67;98324.47;1709676;80;21086;-56
2022/01/21 10:00:57;;;;;;;3.67;2.70;;;;;;;14.36;49.43;98327.73;1707808;82;22494;-55
2022/01/21 10:03:24;;;;;;;11.73;2.90;;;;;;;14.47;44.82;98325.56;1717128;80;22445;-57
2022/01/21 10:05:52;;;;;;;4.90;3.10;;;;;;;14.04;46.69;98340.84;1667245;82;21491;-56
2022/01/21 10:08:23;;;;;;;8.45;3.20;;;;;;;14.07;60.63;98329.17;1718273;80;21688;-55
2022/01/21 10:10:51;;;;;;;9.03;3.52;;;;;;;20.98;57.74;98306.37;1707531;80;21420;-55
2022/01/21 10:13:19;;;;;;;6.12;2.72;;;;;;;18.36;45.87;98310.60;1718263;80;21455;-55
2022/01/21 10:15:47;;;;;;;4.28;3.00;;;;;;;18.05;46.90;98312.22;1704085;80;22483;-55
2022/01/21 10:18:17;;;;;;;7.87;3.22;;;;;;;20.42;75.90;98307.34;1698655;82;21463;-56
2022/01/21 10:21:12;;;;;;;8.20;3.47;;;;;;;18.01;91.93;98314.83;1707064;80;22396;-57
2022/01/21 10:23:41;;;;;;;7.47;3.30;;;;;;;17.69;48.19;98313.84;1710231;82;21179;-58
2022/01/21 10:26:14;;;;;;;6.45;3.42;;;;;;;17.58;100.00;98315.33;1719082;80;20953;-56
2022/01/21 10:28:43;;;;;;;13.58;4.15;;;;;;;19.93;90.26;98310.25;1741618;80;22347;-58
2022/01/21 10:31:16;;;;;;;6.92;4.03;;;;;;;18.75;57.86;98305.57;1743486;80;21522;-58
2022/01/21 10:34:00;;;;;;;5.28;3.55;;;;;;;26.29;100.00;98298.50;1738193;80;21479;-57
2022/01/21 10:36:44;;;;;;;5.55;3.35;;;;;;;17.99;74.19;98318.59;1709681;82;21462;-56
2022/01/21 10:39:29;;;;;;;7.08;3.42;;;;;;;16.35;54.32;98316.09;1734679;80;20949;-59
2022/01/21 10:41:55;;;;;;;5.12;3.10;;;;;;;16.30;52.48;98312.17;1731016;80;21407;-58
2022/01/21 10:44:22;;;;;;;7.25;3.02;;;;;;;35.36;100.00;98289.46;1742836;80;21597;-55
2022/01/21 10:47:06;;;;;;;6.57;3.30;;;;;;;-144.96;100.00;113563.53;1728148;80;21410;-57
2022/01/21 10:49:36;;;;;;;7.45;2.98;;;;;;;24.68;100.00;98301.13;1724518;80;21537;-56
2022/01/21 10:52:03;;;;;;;6.75;3.22;;;;;;;-144.96;100.00;113563.53;1732855;80;21461;-56
2022/01/21 11:40:15;;;;;;;5.65;3.17;;;;;;;16.85;67.14;98299.33;1773175;79;22849;-57
2022/01/21 11:42:43;;;;;;;11.28;3.42;;;;;;;16.85;67.14;98299.33;1769226;80;21505;-56
2022/01/21 11:50:37;;;;;;;7.28;3.12;;;;;;;11.64;66.59;98314.70;1756474;80;21052;-56
2022/01/21 11:53:05;;;;;;;6.20;3.17;;;;;;;8.03;74.52;98321.19;1762661;80;21469;-55
2022/01/21 11:55:45;;;;;;;7.87;4.08;;;;;;;12.83;64.91;98304.11;1767022;79;21561;-56
2022/01/21 11:58:15;;;;;;;6.45;3.35;;;;;;;15.40;66.24;98306.16;1758763;80;22461;-57
2022/01/21 12:00:44;;;;;;;6.37;3.12;;;;;;;15.40;60.68;98303.02;1751386;80;21577;-56
2022/01/21 12:03:10;;;;;;;7.62;3.22;;;;;;;12.72;55.48;98309.82;1766014;79;21488;-56
2022/01/21 12:05:37;;;;;;;4.33;3.08;;;;;;;15.13;61.04;98297.73;1761204;80;21550;-56
2022/01/21 23:56:48;;;;;;;4.47;3.75;;;;;;;8.03;84.46;98440.30;1797611;78;22785;-56
2022/01/21 23:59:15;;;;;;;7.67;4.10;;;;;;;13.06;61.06;98438.78;1763188;80;21864;-56
